Impacts METAR Board
IDs:

KBOS - Boston/Logan Intl, MA, US

Updated at: 2100 UTC 08 Aug 2020
Potential Impact None Slight Moderate High
Time 08/09Z 08/10Z 08/11Z 08/12Z 08/13Z 08/14Z 08/15Z 08/16Z 08/17Z 08/18Z 08/19Z 08/20Z 08/21Z
Temp67 66 68 70 72 73 74 74 72 77 76 76 74
Dewpt61 63 62 62 59 55 53 56 60 55 61 58 59
Altim30.15 30.16 30.18 30.18 30.19 30.19 30.19 30.17 30.16 30.15 30.14 30.13 30.11
VIS10 10 10 10 10 10 10 10 10 10 10 10 10
CIG140 100 130 130 130 85 90 150 -- -- -- -- --
CoverBKNBKNBKNBKNBKNBKNBKNBKNSCTSCTFEWFEWFEW
FltCatVFRVFRVFRVFRVFRVFRVFRVFRVFRVFRVFRVFRVFR
WX--------------------------
WDir2000070120130120100100110100
WSpd3 0 0 0 4 5 6 4 7 11 12 12
WGst-- -- -- -- -- -- -- -- -- -- -- -- --
Raw hourly METARs
KBOS 080854Z 02003KT 10SM SCT110 BKN140 19/16 A3015 RMK AO2 SLP210 T01940161 58002
KBOS 080954Z COR 010/06KT 10SM FEW065 BKN100 BKN140 19/17 A3016
KBOS 081054Z 00000KT 10SM FEW060 BKN130 BKN200 20/17 A3018 RMK AO2 SLP218 T02000167
KBOS 081154Z 00000KT 10SM FEW060 SCT085 BKN130 BKN200 21/17 A3018 RMK AO2 SLP219 T02110167 10211 20189 53009
KBOS 081254Z 00000KT 10SM FEW050 SCT085 BKN130 BKN200 22/15 A3019 RMK AO2 SLP221 T02220150
KBOS 081354Z 07004KT 10SM FEW050 BKN085 BKN140 23/13 A3019 RMK AO2 SLP221 T02280128
KBOS 081454Z 12005KT 10SM FEW050 BKN090 BKN140 23/12 A3019 RMK AO2 SLP224 T02330117 53005
KBOS 081554Z 13006KT 10SM FEW050 SCT120 BKN150 23/13 A3017 RMK AO2 SLP216 T02330133
KBOS 081654Z 12004KT 10SM FEW050 SCT080 SCT120 22/16 A3016 RMK AO2 SLP212 T02220156
KBOS 081754Z 10007KT 10SM FEW055 FEW080 SCT120 25/13 A3015 RMK AO2 SLP209 T02500128 10256 20211 56015
KBOS 081854Z 10011KT 10SM FEW055 FEW120 24/16 A3014 RMK AO2 SLP206 T02440161
KBOS 081954Z 11012KT 10SM FEW055 FEW120 24/14 A3013 RMK AO2 SLP202 T02440144
KBOS 082054Z 10012KT 10SM FEW060 FEW200 23/15 A3011 RMK AO2 SLP196 T02330150 58012



Page loaded:  21:51 UTC  |   02:51 PM Pacific  |   03:51 PM Mountain  |   04:51 PM Central  |   05:51 PM Eastern

 

ADVISORIES

FORECASTS

FORECASTS

OBSERVATIONS

USER TOOLS

ABOUT US